createdAt,value
2017-08-05T00:01:50.663Z,91.00
2017-08-05T00:06:37.359Z,90.70
2017-08-05T00:11:24.005Z,90.40
2017-08-05T00:16:10.625Z,90.30
2017-08-05T00:20:57.291Z,91.00
2017-08-05T00:25:43.951Z,91.60
2017-08-05T00:30:31.346Z,92.70
2017-08-05T00:35:18.025Z,92.60
2017-08-05T00:40:04.781Z,92.60
2017-08-05T00:44:51.405Z,93.30
2017-08-05T00:49:38.044Z,93.20
2017-08-05T00:54:24.870Z,92.60
2017-08-05T00:59:11.512Z,92.60
2017-08-05T01:03:58.901Z,91.10
2017-08-05T01:08:45.515Z,90.80
2017-08-05T01:13:32.251Z,90.60
2017-08-05T01:18:19.043Z,89.70
2017-08-05T01:23:05.658Z,90.00
2017-08-05T01:27:52.278Z,90.20
2017-08-05T01:32:38.876Z,90.20
2017-08-05T01:37:25.491Z,90.90
2017-08-05T01:42:12.110Z,90.40
2017-08-05T01:46:58.755Z,91.30
2017-08-05T01:51:46.140Z,90.80
2017-08-05T01:56:32.769Z,90.80
2017-08-05T02:01:19.708Z,90.70
2017-08-05T02:06:06.338Z,91.10
2017-08-05T02:10:52.989Z,89.60
2017-08-05T02:15:39.645Z,90.50
2017-08-05T02:20:26.320Z,91.20
2017-08-05T02:25:13.708Z,90.80
2017-08-05T02:30:00.289Z,90.80
2017-08-05T02:34:47.047Z,90.90
2017-08-05T02:39:39.702Z,90.40
2017-08-05T02:44:26.354Z,91.20
2017-08-05T02:49:13.277Z,91.30
2017-08-05T02:53:59.989Z,90.30
2017-08-05T02:58:46.750Z,90.00
2017-08-05T03:03:33.384Z,87.10
2017-08-05T03:08:20.124Z,86.90
2017-08-05T03:13:06.868Z,86.50
2017-08-05T03:17:53.525Z,85.90
2017-08-05T03:22:40.902Z,85.70
2017-08-05T03:27:27.546Z,85.50
2017-08-05T03:32:14.176Z,84.30
2017-08-05T03:37:00.809Z,83.00
2017-08-05T03:41:47.416Z,83.60
2017-08-05T03:46:34.064Z,86.90
2017-08-05T03:51:21.428Z,87.50
2017-08-05T03:56:08.087Z,86.70
2017-08-05T04:00:54.717Z,87.60
2017-08-05T04:05:41.337Z,86.50
2017-08-05T04:10:28.000Z,87.70
2017-08-05T04:15:15.015Z,91.50
2017-08-05T04:20:02.451Z,92.00
2017-08-05T04:24:49.852Z,92.60
2017-08-05T04:29:36.590Z,92.70
2017-08-05T04:34:23.329Z,92.80
2017-08-05T04:39:10.060Z,93.50
2017-08-05T04:43:57.440Z,94.00
2017-08-05T04:48:44.180Z,94.00
2017-08-05T04:53:30.867Z,94.10
2017-08-05T04:58:17.554Z,94.70
2017-08-05T05:03:04.181Z,94.10
2017-08-05T05:07:51.593Z,94.70
2017-08-05T05:12:38.241Z,94.70
2017-08-05T05:17:25.755Z,94.50
2017-08-05T05:22:12.478Z,94.50
2017-08-05T05:26:59.328Z,90.60
2017-08-05T05:31:46.072Z,87.70
2017-08-05T05:36:32.709Z,90.40
2017-08-05T05:41:19.463Z,89.10
2017-08-05T05:46:06.148Z,87.00
2017-08-05T05:50:52.969Z,84.10
2017-08-05T05:55:39.737Z,83.10
2017-08-05T06:00:26.395Z,86.50
2017-08-05T06:05:13.029Z,82.80
2017-08-05T06:09:59.720Z,79.40
2017-08-05T06:14:46.366Z,81.00
2017-08-05T06:19:33.002Z,83.10
2017-08-05T06:24:20.397Z,78.20
2017-08-05T06:29:07.025Z,78.30
2017-08-05T06:33:54.374Z,73.40
2017-08-05T06:38:41.017Z,73.20
2017-08-05T06:43:27.652Z,71.40
2017-08-05T06:48:14.312Z,72.80
2017-08-05T06:53:00.953Z,68.80
2017-08-05T06:57:47.850Z,71.70
2017-08-05T07:02:34.467Z,68.80
2017-08-05T07:07:21.139Z,69.20
2017-08-05T07:12:07.789Z,65.90
2017-08-05T07:16:54.437Z,66.70
2017-08-05T07:21:41.105Z,65.90
2017-08-05T07:26:28.170Z,65.40
2017-08-05T07:31:14.946Z,65.50
2017-08-05T07:36:01.564Z,66.20
2017-08-05T07:40:48.248Z,65.90
2017-08-05T07:45:35.267Z,64.50
2017-08-05T07:50:22.062Z,65.80
2017-08-05T07:55:08.756Z,61.70
2017-08-05T07:59:55.422Z,57.40
2017-08-05T08:04:42.025Z,60.00
2017-08-05T08:09:28.688Z,61.10
2017-08-05T08:14:15.610Z,60.20
2017-08-05T08:19:02.227Z,59.80
2017-08-05T08:23:48.863Z,57.20
2017-08-05T08:28:36.284Z,54.00
2017-08-05T08:33:22.938Z,53.90
2017-08-05T08:38:10.375Z,55.10
2017-08-05T08:42:57.135Z,55.10
2017-08-05T08:47:44.172Z,55.10
2017-08-05T08:52:30.861Z,53.40
2017-08-05T08:57:17.520Z,53.40
2017-08-05T09:02:04.163Z,49.60
2017-08-05T09:06:51.097Z,54.30
2017-08-05T09:11:37.725Z,52.20
2017-08-05T09:16:24.348Z,52.90
2017-08-05T09:21:11.746Z,53.20
2017-08-05T09:25:58.462Z,53.20
2017-08-05T09:30:45.172Z,52.80
2017-08-05T09:35:31.910Z,53.30
2017-08-05T09:40:18.545Z,53.90
2017-08-05T09:45:05.168Z,55.70
2017-08-05T09:49:52.100Z,55.30
2017-08-05T09:54:38.717Z,56.10
2017-08-05T09:59:25.363Z,55.70
2017-08-05T10:04:12.744Z,51.00
2017-08-05T10:08:59.376Z,51.20
2017-08-05T10:13:46.028Z,53.00
2017-08-05T10:18:32.661Z,51.20
2017-08-05T10:23:20.386Z,50.50
2017-08-05T10:28:07.011Z,50.40
2017-08-05T10:32:53.634Z,49.30
2017-08-05T10:37:40.273Z,49.90
2017-08-05T10:42:27.656Z,50.80
2017-08-05T10:47:14.293Z,50.70
2017-08-05T10:52:00.955Z,51.70
2017-08-05T10:56:47.558Z,49.50
2017-08-05T11:01:34.981Z,50.00
2017-08-05T11:06:21.710Z,49.50
2017-08-05T11:11:08.629Z,47.60
2017-08-05T11:15:55.244Z,50.00
2017-08-05T11:20:41.866Z,51.20
2017-08-05T11:25:28.536Z,51.10
2017-08-05T11:30:15.216Z,47.80
2017-08-05T11:35:01.878Z,48.40
2017-08-05T11:39:48.546Z,49.30
2017-08-05T11:44:35.177Z,47.10
2017-08-05T11:49:22.002Z,47.20
2017-08-05T11:54:08.804Z,50.70
2017-08-05T11:58:55.452Z,50.60
2017-08-05T12:03:42.049Z,50.30
2017-08-05T12:08:28.991Z,46.30
2017-08-05T12:13:15.593Z,49.40
2017-08-05T12:18:02.401Z,49.50
2017-08-05T12:22:49.043Z,49.10
2017-08-05T12:27:35.865Z,46.00
2017-08-05T12:32:22.608Z,48.90
2017-08-05T12:37:09.262Z,49.90
2017-08-05T12:41:56.561Z,49.00
2017-08-05T12:46:43.222Z,45.80
2017-08-05T12:51:29.869Z,48.10
2017-08-05T12:56:16.824Z,48.10
2017-08-05T13:01:03.417Z,53.20
2017-08-05T13:05:50.027Z,56.90
2017-08-05T13:10:36.667Z,55.30
2017-08-05T13:15:23.335Z,55.10
2017-08-05T13:20:10.324Z,54.00
2017-08-05T13:24:56.956Z,55.90
2017-08-05T13:29:44.348Z,56.00
2017-08-05T13:34:30.988Z,56.00
2017-08-05T13:39:17.622Z,55.20
2017-08-05T13:44:04.358Z,55.10
2017-08-05T13:48:51.033Z,56.00
2017-08-05T13:53:37.903Z,58.70
2017-08-05T13:58:24.809Z,57.00
2017-08-05T14:03:11.423Z,57.20
2017-08-05T14:07:58.118Z,56.40
2017-08-05T14:12:44.784Z,58.00
2017-08-05T14:17:31.501Z,58.30
2017-08-05T14:22:18.134Z,57.50
2017-08-05T14:27:05.151Z,57.10
2017-08-05T14:31:51.786Z,58.20
2017-08-05T14:36:38.424Z,56.40
2017-08-05T14:41:25.041Z,57.20
2017-08-05T14:46:12.417Z,57.90
2017-08-05T14:50:59.045Z,57.80
2017-08-05T14:55:46.001Z,57.10
2017-08-05T15:00:32.745Z,55.60
2017-08-05T15:05:20.116Z,56.30
2017-08-05T15:10:06.751Z,56.10
2017-08-05T15:14:53.370Z,57.00
2017-08-05T15:19:40.006Z,56.20
2017-08-05T15:24:26.647Z,57.90
2017-08-05T15:29:13.664Z,57.60
2017-08-05T15:34:00.237Z,57.50
2017-08-05T15:38:46.884Z,59.00
2017-08-05T15:43:34.459Z,59.60
2017-08-05T15:48:21.953Z,62.40
2017-08-05T15:53:08.628Z,61.90
2017-08-05T15:57:55.263Z,61.60
2017-08-05T16:02:42.654Z,63.70
2017-08-05T16:07:29.302Z,63.70
2017-08-05T16:12:15.952Z,65.30
2017-08-05T16:17:02.674Z,64.60
2017-08-05T16:21:49.669Z,61.40
2017-08-05T16:26:36.394Z,60.30
2017-08-05T16:31:23.043Z,60.00
2017-08-05T16:36:09.685Z,58.00
2017-08-05T16:40:56.455Z,56.60
2017-08-05T16:45:43.089Z,57.80
2017-08-05T16:50:29.706Z,56.40
2017-08-05T16:55:16.342Z,56.20
2017-08-05T17:00:03.034Z,57.30
2017-08-05T17:04:49.716Z,57.50
2017-08-05T17:09:36.441Z,57.90
2017-08-05T17:14:23.226Z,57.70
2017-08-05T17:19:10.931Z,58.70
2017-08-05T17:23:57.543Z,58.70
2017-08-05T17:28:44.249Z,59.80
2017-08-05T17:33:30.900Z,59.80
2017-08-05T17:38:17.604Z,60.60
2017-08-05T17:43:04.254Z,61.00
2017-08-05T17:47:50.977Z,60.40
2017-08-05T17:52:38.010Z,60.70
2017-08-05T17:57:24.765Z,62.70
2017-08-05T18:02:11.568Z,64.70
2017-08-05T18:06:58.238Z,64.50
2017-08-05T18:11:44.905Z,64.90
2017-08-05T18:16:32.333Z,67.40
2017-08-05T18:21:19.343Z,67.30
2017-08-05T18:26:06.388Z,68.70
2017-08-05T18:30:53.027Z,70.50
2017-08-05T18:35:40.445Z,72.30
2017-08-05T18:40:27.097Z,72.20
2017-08-05T18:45:14.578Z,74.10
2017-08-05T18:50:01.628Z,74.10
2017-08-05T18:54:48.249Z,74.00
2017-08-05T18:59:35.737Z,74.50
2017-08-05T19:04:22.503Z,76.10
2017-08-05T19:09:09.249Z,76.90
2017-08-05T19:13:55.917Z,78.30
2017-08-05T19:18:42.677Z,79.40
2017-08-05T19:23:29.623Z,79.50
2017-08-05T19:28:16.274Z,80.60
2017-08-05T19:33:02.925Z,79.60
2017-08-05T19:37:49.667Z,80.30
2017-08-05T19:42:36.330Z,81.90
2017-08-05T19:47:22.991Z,82.70
2017-08-05T19:52:09.634Z,84.60
2017-08-05T19:56:56.556Z,84.50
2017-08-05T20:01:43.216Z,82.90
2017-08-05T20:06:29.832Z,83.70
2017-08-05T20:11:17.233Z,85.50
2017-08-05T20:16:03.846Z,85.50
2017-08-05T20:20:50.493Z,85.80
2017-08-05T20:25:37.123Z,85.10
2017-08-05T20:30:24.502Z,88.10
2017-08-05T20:35:11.153Z,88.10
2017-08-05T20:39:58.197Z,86.30
2017-08-05T20:44:44.833Z,85.30
2017-08-05T20:49:32.226Z,89.30
2017-08-05T20:54:18.864Z,89.20
2017-08-05T20:59:05.515Z,90.50
2017-08-05T21:03:52.172Z,93.00
2017-08-05T21:08:38.842Z,96.70
2017-08-05T21:13:26.227Z,99.90
2017-08-05T21:18:12.955Z,99.90
2017-08-05T21:23:00.640Z,99.90
2017-08-05T21:27:47.358Z,98.60
2017-08-05T21:32:34.278Z,99.10
2017-08-05T21:37:20.918Z,99.90
2017-08-05T21:42:08.321Z,99.90
2017-08-05T21:46:54.949Z,99.90
2017-08-05T21:51:41.618Z,99.90
2017-08-05T21:56:28.233Z,99.90
2017-08-05T22:01:15.606Z,99.90
2017-08-05T22:06:02.549Z,99.90
2017-08-05T22:10:49.152Z,99.90
2017-08-05T22:15:36.106Z,99.90
2017-08-05T22:20:22.800Z,99.90
2017-08-05T22:25:09.540Z,99.90
2017-08-05T22:29:56.210Z,99.90
2017-08-05T22:34:43.105Z,99.90
2017-08-05T22:39:29.737Z,99.90
2017-08-05T22:44:16.649Z,99.90
2017-08-05T22:49:03.258Z,99.90
2017-08-05T22:53:49.906Z,99.90
2017-08-05T22:58:37.296Z,99.90
2017-08-05T23:03:24.253Z,99.90
2017-08-05T23:08:10.893Z,99.90
2017-08-05T23:12:58.296Z,99.90
2017-08-05T23:17:44.929Z,99.90
2017-08-05T23:22:31.569Z,99.90
2017-08-05T23:27:18.172Z,99.90
2017-08-05T23:32:04.811Z,99.90
2017-08-05T23:36:52.455Z,99.90
2017-08-05T23:41:39.825Z,99.90
2017-08-05T23:46:26.428Z,99.90
2017-08-05T23:51:13.065Z,99.90
2017-08-05T23:55:59.725Z,99.90
